<?xml version="1.0" encoding="UTF-8" standalone="no" ?>
<gpx xmlns="http://www.topografix.com/GPX/1/1" xmlns:xsi="http://www.w3.org/2001/XMLSchema-instance" xsi:schemaLocation="http://www.topografix.com/GPX/1/1 http://www.topografix.com/GPX/1/1/gpx.xsd" version="1.1" creator="VisuGPX - https://www.visugpx.com">
  <metadata>
    <name>Labyrinthe v2</name>
    <desc><![CDATA[Labyrinthe v2]]></desc>
  </metadata>
  <trk>
    <name><![CDATA[2015-08-09 20:09]]></name>
    <desc><![CDATA[<h1>OruxMaps</h1><br /><hr align="center" width="480" style="height: 2px; width: 517px"/><h2>Nom: 2015-08-09 20:09</h2><br /><p>Temps de départ: 08/09/2015 20:10</p><p>Temps d'arrivée: 08/09/2015 20:50</p><p>Distance: 7,9km (00:40)</p><p>Temps déplacement: 00:35</p><p>Vitesse moyenne: 11,7km/h</p><p>Vitesse moyenne: 13,2km/h</p><p>Vitess Max.: 16,5km/h</p><p>Altitude minimale: 4m</p><p>Altitude maximale: 85m</p><p>Vitesse d'élévation: 409,2m/h</p><p>Vitesse de descente: -707m/h</p><p>Gain Altitude: 124m</p><p>Perte Altitude: -146m</p><p>Temps d'élévation: 00:18</p><p>Temps de descente: 00:12</p><hr align="center" width="480" style="height: 2px; width: 517px"/>]]></desc>
    <trkseg>
      <trkpt lat="47.16762" lon="-1.6264">
        <ele>26</ele>
        <time>2015-08-09T18:10:08Z</time>
      </trkpt>
      <trkpt lat="47.16775" lon="-1.62673">
        <ele>25.2</ele>
        <time>2015-08-09T18:10:26Z</time>
      </trkpt>
      <trkpt lat="47.16786" lon="-1.62699">
        <ele>25.2</ele>
        <time>2015-08-09T18:10:30Z</time>
      </trkpt>
      <trkpt lat="47.16788" lon="-1.62729">
        <ele>25.3</ele>
        <time>2015-08-09T18:10:36Z</time>
      </trkpt>
      <trkpt lat="47.1678" lon="-1.62754">
        <ele>24.9</ele>
        <time>2015-08-09T18:10:42Z</time>
      </trkpt>
      <trkpt lat="47.16797" lon="-1.6277">
        <ele>24.5</ele>
        <time>2015-08-09T18:10:48Z</time>
      </trkpt>
      <trkpt lat="47.16811" lon="-1.62795">
        <ele>24</ele>
        <time>2015-08-09T18:10:54Z</time>
      </trkpt>
      <trkpt lat="47.16826" lon="-1.62813">
        <ele>23.6</ele>
        <time>2015-08-09T18:10:59Z</time>
      </trkpt>
      <trkpt lat="47.16837" lon="-1.62835">
        <ele>23.2</ele>
        <time>2015-08-09T18:11:03Z</time>
      </trkpt>
      <trkpt lat="47.16853" lon="-1.6285">
        <ele>22.8</ele>
        <time>2015-08-09T18:11:08Z</time>
      </trkpt>
      <trkpt lat="47.16867" lon="-1.6287">
        <ele>22.4</ele>
        <time>2015-08-09T18:11:13Z</time>
      </trkpt>
      <trkpt lat="47.16884" lon="-1.62886">
        <ele>21.9</ele>
        <time>2015-08-09T18:11:18Z</time>
      </trkpt>
      <trkpt lat="47.16901" lon="-1.62898">
        <ele>21.4</ele>
        <time>2015-08-09T18:11:23Z</time>
      </trkpt>
      <trkpt lat="47.16919" lon="-1.62908">
        <ele>20.8</ele>
        <time>2015-08-09T18:11:28Z</time>
      </trkpt>
      <trkpt lat="47.16936" lon="-1.62917">
        <ele>20.2</ele>
        <time>2015-08-09T18:11:34Z</time>
      </trkpt>
      <trkpt lat="47.16954" lon="-1.62931">
        <ele>19.5</ele>
        <time>2015-08-09T18:11:41Z</time>
      </trkpt>
      <trkpt lat="47.16973" lon="-1.62944">
        <ele>18.8</ele>
        <time>2015-08-09T18:11:47Z</time>
      </trkpt>
      <trkpt lat="47.1699" lon="-1.6295">
        <ele>18.3</ele>
        <time>2015-08-09T18:11:52Z</time>
      </trkpt>
      <trkpt lat="47.17009" lon="-1.62949">
        <ele>17.6</ele>
        <time>2015-08-09T18:11:57Z</time>
      </trkpt>
      <trkpt lat="47.17029" lon="-1.62948">
        <ele>16.8</ele>
        <time>2015-08-09T18:12:03Z</time>
      </trkpt>
      <trkpt lat="47.17048" lon="-1.62941">
        <ele>15.9</ele>
        <time>2015-08-09T18:12:09Z</time>
      </trkpt>
      <trkpt lat="47.17067" lon="-1.6293">
        <ele>15.2</ele>
        <time>2015-08-09T18:12:15Z</time>
      </trkpt>
      <trkpt lat="47.17083" lon="-1.62917">
        <ele>14.5</ele>
        <time>2015-08-09T18:12:20Z</time>
      </trkpt>
      <trkpt lat="47.17099" lon="-1.62903">
        <ele>13.9</ele>
        <time>2015-08-09T18:12:25Z</time>
      </trkpt>
      <trkpt lat="47.17114" lon="-1.62886">
        <ele>13.2</ele>
        <time>2015-08-09T18:12:30Z</time>
      </trkpt>
      <trkpt lat="47.17126" lon="-1.62864">
        <ele>12.4</ele>
        <time>2015-08-09T18:12:36Z</time>
      </trkpt>
      <trkpt lat="47.17138" lon="-1.62841">
        <ele>12</ele>
        <time>2015-08-09T18:12:42Z</time>
      </trkpt>
      <trkpt lat="47.17153" lon="-1.6282">
        <ele>11.7</ele>
        <time>2015-08-09T18:12:48Z</time>
      </trkpt>
      <trkpt lat="47.17173" lon="-1.6281">
        <ele>11.2</ele>
        <time>2015-08-09T18:12:54Z</time>
      </trkpt>
      <trkpt lat="47.17188" lon="-1.62824">
        <ele>11.1</ele>
        <time>2015-08-09T18:12:58Z</time>
      </trkpt>
      <trkpt lat="47.17203" lon="-1.62843">
        <ele>10.3</ele>
        <time>2015-08-09T18:13:03Z</time>
      </trkpt>
      <trkpt lat="47.17216" lon="-1.62864">
        <ele>9.3</ele>
        <time>2015-08-09T18:13:09Z</time>
      </trkpt>
      <trkpt lat="47.17231" lon="-1.62884">
        <ele>8.4</ele>
        <time>2015-08-09T18:13:15Z</time>
      </trkpt>
      <trkpt lat="47.17249" lon="-1.62872">
        <ele>7.9</ele>
        <time>2015-08-09T18:13:21Z</time>
      </trkpt>
      <trkpt lat="47.17264" lon="-1.62853">
        <ele>7.6</ele>
        <time>2015-08-09T18:13:27Z</time>
      </trkpt>
      <trkpt lat="47.17283" lon="-1.62863">
        <ele>7.6</ele>
        <time>2015-08-09T18:13:34Z</time>
      </trkpt>
      <trkpt lat="47.173" lon="-1.62879">
        <ele>7.2</ele>
        <time>2015-08-09T18:13:40Z</time>
      </trkpt>
      <trkpt lat="47.17312" lon="-1.62903">
        <ele>6.6</ele>
        <time>2015-08-09T18:13:46Z</time>
      </trkpt>
      <trkpt lat="47.17306" lon="-1.6293">
        <ele>6.4</ele>
        <time>2015-08-09T18:13:53Z</time>
      </trkpt>
      <trkpt lat="47.17295" lon="-1.62955">
        <ele>6</ele>
        <time>2015-08-09T18:14:00Z</time>
      </trkpt>
      <trkpt lat="47.17283" lon="-1.62978">
        <ele>5.6</ele>
        <time>2015-08-09T18:14:07Z</time>
      </trkpt>
      <trkpt lat="47.17269" lon="-1.62996">
        <ele>5.2</ele>
        <time>2015-08-09T18:14:13Z</time>
      </trkpt>
      <trkpt lat="47.17254" lon="-1.63014">
        <ele>5.2</ele>
        <time>2015-08-09T18:14:20Z</time>
      </trkpt>
      <trkpt lat="47.17244" lon="-1.63037">
        <ele>5.4</ele>
        <time>2015-08-09T18:14:26Z</time>
      </trkpt>
      <trkpt lat="47.1723" lon="-1.63056">
        <ele>5.1</ele>
        <time>2015-08-09T18:14:33Z</time>
      </trkpt>
      <trkpt lat="47.17215" lon="-1.63072">
        <ele>4.9</ele>
        <time>2015-08-09T18:14:39Z</time>
      </trkpt>
      <trkpt lat="47.172" lon="-1.63091">
        <ele>4.9</ele>
        <time>2015-08-09T18:14:45Z</time>
      </trkpt>
      <trkpt lat="47.17183" lon="-1.63108">
        <ele>5.1</ele>
        <time>2015-08-09T18:14:51Z</time>
      </trkpt>
      <trkpt lat="47.17165" lon="-1.63121">
        <ele>5.1</ele>
        <time>2015-08-09T18:14:58Z</time>
      </trkpt>
      <trkpt lat="47.17146" lon="-1.6313">
        <ele>5</ele>
        <time>2015-08-09T18:15:06Z</time>
      </trkpt>
      <trkpt lat="47.17129" lon="-1.63143">
        <ele>4.7</ele>
        <time>2015-08-09T18:15:13Z</time>
      </trkpt>
      <trkpt lat="47.17109" lon="-1.63151">
        <ele>4.6</ele>
        <time>2015-08-09T18:15:20Z</time>
      </trkpt>
      <trkpt lat="47.1709" lon="-1.63154">
        <ele>4.4</ele>
        <time>2015-08-09T18:15:27Z</time>
      </trkpt>
      <trkpt lat="47.17074" lon="-1.63169">
        <ele>4.7</ele>
        <time>2015-08-09T18:15:33Z</time>
      </trkpt>
      <trkpt lat="47.17054" lon="-1.63178">
        <ele>4.7</ele>
        <time>2015-08-09T18:15:40Z</time>
      </trkpt>
      <trkpt lat="47.17038" lon="-1.63192">
        <ele>4.6</ele>
        <time>2015-08-09T18:15:46Z</time>
      </trkpt>
      <trkpt lat="47.17021" lon="-1.63203">
        <ele>4.5</ele>
        <time>2015-08-09T18:15:52Z</time>
      </trkpt>
      <trkpt lat="47.17003" lon="-1.63218">
        <ele>4.6</ele>
        <time>2015-08-09T18:15:58Z</time>
      </trkpt>
      <trkpt lat="47.16986" lon="-1.63234">
        <ele>4.5</ele>
        <time>2015-08-09T18:16:04Z</time>
      </trkpt>
      <trkpt lat="47.16971" lon="-1.63251">
        <ele>4.6</ele>
        <time>2015-08-09T18:16:10Z</time>
      </trkpt>
      <trkpt lat="47.16955" lon="-1.63269">
        <ele>5</ele>
        <time>2015-08-09T18:16:16Z</time>
      </trkpt>
      <trkpt lat="47.16941" lon="-1.6329">
        <ele>5.3</ele>
        <time>2015-08-09T18:16:22Z</time>
      </trkpt>
      <trkpt lat="47.16926" lon="-1.6331">
        <ele>5.9</ele>
        <time>2015-08-09T18:16:28Z</time>
      </trkpt>
      <trkpt lat="47.1691" lon="-1.63331">
        <ele>6.3</ele>
        <time>2015-08-09T18:16:35Z</time>
      </trkpt>
      <trkpt lat="47.16898" lon="-1.63352">
        <ele>6.6</ele>
        <time>2015-08-09T18:16:40Z</time>
      </trkpt>
      <trkpt lat="47.16884" lon="-1.63374">
        <ele>6.7</ele>
        <time>2015-08-09T18:16:45Z</time>
      </trkpt>
      <trkpt lat="47.16873" lon="-1.63394">
        <ele>6.5</ele>
        <time>2015-08-09T18:16:50Z</time>
      </trkpt>
      <trkpt lat="47.16861" lon="-1.63416">
        <ele>6.7</ele>
        <time>2015-08-09T18:16:56Z</time>
      </trkpt>
      <trkpt lat="47.16847" lon="-1.63436">
        <ele>7</ele>
        <time>2015-08-09T18:17:03Z</time>
      </trkpt>
      <trkpt lat="47.16835" lon="-1.63459">
        <ele>7.2</ele>
        <time>2015-08-09T18:17:10Z</time>
      </trkpt>
      <trkpt lat="47.16823" lon="-1.6348">
        <ele>7.7</ele>
        <time>2015-08-09T18:17:16Z</time>
      </trkpt>
      <trkpt lat="47.16811" lon="-1.63501">
        <ele>8.2</ele>
        <time>2015-08-09T18:17:21Z</time>
      </trkpt>
      <trkpt lat="47.16799" lon="-1.63523">
        <ele>8.7</ele>
        <time>2015-08-09T18:17:26Z</time>
      </trkpt>
      <trkpt lat="47.16786" lon="-1.63543">
        <ele>9.3</ele>
        <time>2015-08-09T18:17:32Z</time>
      </trkpt>
      <trkpt lat="47.16772" lon="-1.63566">
        <ele>10.4</ele>
        <time>2015-08-09T18:17:39Z</time>
      </trkpt>
      <trkpt lat="47.16758" lon="-1.63587">
        <ele>11.3</ele>
        <time>2015-08-09T18:17:45Z</time>
      </trkpt>
      <trkpt lat="47.16748" lon="-1.63612">
        <ele>12.5</ele>
        <time>2015-08-09T18:17:51Z</time>
      </trkpt>
      <trkpt lat="47.16741" lon="-1.63636">
        <ele>13.7</ele>
        <time>2015-08-09T18:17:57Z</time>
      </trkpt>
      <trkpt lat="47.16752" lon="-1.63659">
        <ele>14.2</ele>
        <time>2015-08-09T18:18:03Z</time>
      </trkpt>
      <trkpt lat="47.1677" lon="-1.63665">
        <ele>15.3</ele>
        <time>2015-08-09T18:18:09Z</time>
      </trkpt>
      <trkpt lat="47.1679" lon="-1.63672">
        <ele>16.1</ele>
        <time>2015-08-09T18:18:15Z</time>
      </trkpt>
      <trkpt lat="47.16811" lon="-1.63676">
        <ele>17.2</ele>
        <time>2015-08-09T18:18:22Z</time>
      </trkpt>
      <trkpt lat="47.16829" lon="-1.63682">
        <ele>18</ele>
        <time>2015-08-09T18:18:28Z</time>
      </trkpt>
      <trkpt lat="47.16848" lon="-1.63688">
        <ele>18.9</ele>
        <time>2015-08-09T18:18:34Z</time>
      </trkpt>
      <trkpt lat="47.16867" lon="-1.63696">
        <ele>19.7</ele>
        <time>2015-08-09T18:18:40Z</time>
      </trkpt>
      <trkpt lat="47.16885" lon="-1.63699">
        <ele>21.1</ele>
        <time>2015-08-09T18:18:46Z</time>
      </trkpt>
      <trkpt lat="47.16905" lon="-1.63702">
        <ele>22.2</ele>
        <time>2015-08-09T18:18:52Z</time>
      </trkpt>
      <trkpt lat="47.16924" lon="-1.63706">
        <ele>23</ele>
        <time>2015-08-09T18:18:58Z</time>
      </trkpt>
      <trkpt lat="47.16944" lon="-1.63713">
        <ele>23.6</ele>
        <time>2015-08-09T18:19:04Z</time>
      </trkpt>
      <trkpt lat="47.16963" lon="-1.63721">
        <ele>23.9</ele>
        <time>2015-08-09T18:19:10Z</time>
      </trkpt>
      <trkpt lat="47.16981" lon="-1.63726">
        <ele>24.4</ele>
        <time>2015-08-09T18:19:16Z</time>
      </trkpt>
      <trkpt lat="47.17001" lon="-1.63735">
        <ele>25</ele>
        <time>2015-08-09T18:19:23Z</time>
      </trkpt>
      <trkpt lat="47.1702" lon="-1.63743">
        <ele>25.7</ele>
        <time>2015-08-09T18:19:29Z</time>
      </trkpt>
      <trkpt lat="47.17044" lon="-1.6375">
        <ele>25.4</ele>
        <time>2015-08-09T18:19:36Z</time>
      </trkpt>
      <trkpt lat="47.17062" lon="-1.63765">
        <ele>26.1</ele>
        <time>2015-08-09T18:19:43Z</time>
      </trkpt>
      <trkpt lat="47.17067" lon="-1.63792">
        <ele>26.8</ele>
        <time>2015-08-09T18:19:49Z</time>
      </trkpt>
      <trkpt lat="47.17076" lon="-1.6382">
        <ele>27.5</ele>
        <time>2015-08-09T18:19:55Z</time>
      </trkpt>
      <trkpt lat="47.17085" lon="-1.63844">
        <ele>28.6</ele>
        <time>2015-08-09T18:20:00Z</time>
      </trkpt>
      <trkpt lat="47.17093" lon="-1.63872">
        <ele>29.6</ele>
        <time>2015-08-09T18:20:06Z</time>
      </trkpt>
      <trkpt lat="47.171" lon="-1.63899">
        <ele>29.8</ele>
        <time>2015-08-09T18:20:12Z</time>
      </trkpt>
      <trkpt lat="47.17111" lon="-1.63924">
        <ele>30.6</ele>
        <time>2015-08-09T18:20:19Z</time>
      </trkpt>
      <trkpt lat="47.17121" lon="-1.6395">
        <ele>31.5</ele>
        <time>2015-08-09T18:20:26Z</time>
      </trkpt>
      <trkpt lat="47.17128" lon="-1.63977">
        <ele>31.6</ele>
        <time>2015-08-09T18:20:33Z</time>
      </trkpt>
      <trkpt lat="47.17127" lon="-1.64006">
        <ele>32.3</ele>
        <time>2015-08-09T18:20:39Z</time>
      </trkpt>
      <trkpt lat="47.17127" lon="-1.64036">
        <ele>32.7</ele>
        <time>2015-08-09T18:20:45Z</time>
      </trkpt>
      <trkpt lat="47.17125" lon="-1.64064">
        <ele>33.1</ele>
        <time>2015-08-09T18:20:51Z</time>
      </trkpt>
      <trkpt lat="47.17123" lon="-1.64093">
        <ele>34.1</ele>
        <time>2015-08-09T18:20:58Z</time>
      </trkpt>
      <trkpt lat="47.1712" lon="-1.64121">
        <ele>34.8</ele>
        <time>2015-08-09T18:21:06Z</time>
      </trkpt>
      <trkpt lat="47.17116" lon="-1.64147">
        <ele>35.1</ele>
        <time>2015-08-09T18:21:12Z</time>
      </trkpt>
      <trkpt lat="47.17112" lon="-1.64174">
        <ele>35.6</ele>
        <time>2015-08-09T18:21:18Z</time>
      </trkpt>
      <trkpt lat="47.17108" lon="-1.64201">
        <ele>36.8</ele>
        <time>2015-08-09T18:21:24Z</time>
      </trkpt>
      <trkpt lat="47.17102" lon="-1.64227">
        <ele>38.6</ele>
        <time>2015-08-09T18:21:30Z</time>
      </trkpt>
      <trkpt lat="47.17098" lon="-1.64255">
        <ele>40.3</ele>
        <time>2015-08-09T18:21:37Z</time>
      </trkpt>
      <trkpt lat="47.17097" lon="-1.64285">
        <ele>41.8</ele>
        <time>2015-08-09T18:21:44Z</time>
      </trkpt>
      <trkpt lat="47.17091" lon="-1.64314">
        <ele>43.1</ele>
        <time>2015-08-09T18:21:52Z</time>
      </trkpt>
      <trkpt lat="47.17088" lon="-1.6434">
        <ele>43.8</ele>
        <time>2015-08-09T18:21:58Z</time>
      </trkpt>
      <trkpt lat="47.17085" lon="-1.64366">
        <ele>44.7</ele>
        <time>2015-08-09T18:22:04Z</time>
      </trkpt>
      <trkpt lat="47.17082" lon="-1.64396">
        <ele>46.1</ele>
        <time>2015-08-09T18:22:11Z</time>
      </trkpt>
      <trkpt lat="47.17083" lon="-1.64425">
        <ele>47.4</ele>
        <time>2015-08-09T18:22:18Z</time>
      </trkpt>
      <trkpt lat="47.1708" lon="-1.64454">
        <ele>48.5</ele>
        <time>2015-08-09T18:22:24Z</time>
      </trkpt>
      <trkpt lat="47.17078" lon="-1.64481">
        <ele>49.5</ele>
        <time>2015-08-09T18:22:30Z</time>
      </trkpt>
      <trkpt lat="47.17081" lon="-1.64509">
        <ele>50.9</ele>
        <time>2015-08-09T18:22:37Z</time>
      </trkpt>
      <trkpt lat="47.17078" lon="-1.64539">
        <ele>52.5</ele>
        <time>2015-08-09T18:22:44Z</time>
      </trkpt>
      <trkpt lat="47.17075" lon="-1.64568">
        <ele>54</ele>
        <time>2015-08-09T18:22:51Z</time>
      </trkpt>
      <trkpt lat="47.17075" lon="-1.64596">
        <ele>55.6</ele>
        <time>2015-08-09T18:22:57Z</time>
      </trkpt>
      <trkpt lat="47.17078" lon="-1.64624">
        <ele>56.8</ele>
        <time>2015-08-09T18:23:03Z</time>
      </trkpt>
      <trkpt lat="47.1708" lon="-1.64651">
        <ele>57.9</ele>
        <time>2015-08-09T18:23:09Z</time>
      </trkpt>
      <trkpt lat="47.17082" lon="-1.64679">
        <ele>59.4</ele>
        <time>2015-08-09T18:23:15Z</time>
      </trkpt>
      <trkpt lat="47.17085" lon="-1.64707">
        <ele>60.2</ele>
        <time>2015-08-09T18:23:22Z</time>
      </trkpt>
      <trkpt lat="47.17081" lon="-1.64735">
        <ele>60.3</ele>
        <time>2015-08-09T18:23:28Z</time>
      </trkpt>
      <trkpt lat="47.1708" lon="-1.64761">
        <ele>61.4</ele>
        <time>2015-08-09T18:23:34Z</time>
      </trkpt>
      <trkpt lat="47.17079" lon="-1.6479">
        <ele>62.5</ele>
        <time>2015-08-09T18:23:40Z</time>
      </trkpt>
      <trkpt lat="47.17075" lon="-1.64821">
        <ele>63.4</ele>
        <time>2015-08-09T18:23:46Z</time>
      </trkpt>
      <trkpt lat="47.17076" lon="-1.64847">
        <ele>64.8</ele>
        <time>2015-08-09T18:23:52Z</time>
      </trkpt>
      <trkpt lat="47.17074" lon="-1.64878">
        <ele>66.2</ele>
        <time>2015-08-09T18:23:58Z</time>
      </trkpt>
      <trkpt lat="47.17082" lon="-1.64902">
        <ele>67.4</ele>
        <time>2015-08-09T18:24:05Z</time>
      </trkpt>
      <trkpt lat="47.17087" lon="-1.64931">
        <ele>68</ele>
        <time>2015-08-09T18:24:12Z</time>
      </trkpt>
      <trkpt lat="47.17091" lon="-1.64959">
        <ele>69.2</ele>
        <time>2015-08-09T18:24:20Z</time>
      </trkpt>
      <trkpt lat="47.17096" lon="-1.64986">
        <ele>70.4</ele>
        <time>2015-08-09T18:24:27Z</time>
      </trkpt>
      <trkpt lat="47.17098" lon="-1.65015">
        <ele>72.1</ele>
        <time>2015-08-09T18:24:34Z</time>
      </trkpt>
      <trkpt lat="47.17099" lon="-1.65044">
        <ele>74.2</ele>
        <time>2015-08-09T18:24:41Z</time>
      </trkpt>
      <trkpt lat="47.171" lon="-1.65071">
        <ele>76.3</ele>
        <time>2015-08-09T18:24:48Z</time>
      </trkpt>
      <trkpt lat="47.17107" lon="-1.65099">
        <ele>77</ele>
        <time>2015-08-09T18:24:54Z</time>
      </trkpt>
      <trkpt lat="47.17108" lon="-1.65127">
        <ele>78.5</ele>
        <time>2015-08-09T18:25:00Z</time>
      </trkpt>
      <trkpt lat="47.17113" lon="-1.65154">
        <ele>79.8</ele>
        <time>2015-08-09T18:25:07Z</time>
      </trkpt>
      <trkpt lat="47.17117" lon="-1.65182">
        <ele>81.5</ele>
        <time>2015-08-09T18:25:15Z</time>
      </trkpt>
      <trkpt lat="47.17118" lon="-1.6521">
        <ele>83.6</ele>
        <time>2015-08-09T18:25:23Z</time>
      </trkpt>
      <trkpt lat="47.17117" lon="-1.65238">
        <ele>85.5</ele>
        <time>2015-08-09T18:25:30Z</time>
      </trkpt>
      <trkpt lat="47.17103" lon="-1.65262">
        <ele>83.1</ele>
        <time>2015-08-09T18:25:35Z</time>
      </trkpt>
      <trkpt lat="47.17091" lon="-1.65282">
        <ele>82</ele>
        <time>2015-08-09T18:25:41Z</time>
      </trkpt>
      <trkpt lat="47.17078" lon="-1.65305">
        <ele>79.7</ele>
        <time>2015-08-09T18:25:49Z</time>
      </trkpt>
      <trkpt lat="47.17084" lon="-1.65335">
        <ele>79.8</ele>
        <time>2015-08-09T18:25:55Z</time>
      </trkpt>
      <trkpt lat="47.171" lon="-1.65353">
        <ele>77.8</ele>
        <time>2015-08-09T18:26:01Z</time>
      </trkpt>
      <trkpt lat="47.17108" lon="-1.65379">
        <ele>74.5</ele>
        <time>2015-08-09T18:26:09Z</time>
      </trkpt>
      <trkpt lat="47.17108" lon="-1.65406">
        <ele>73</ele>
        <time>2015-08-09T18:26:16Z</time>
      </trkpt>
      <trkpt lat="47.1711" lon="-1.65435">
        <ele>71.3</ele>
        <time>2015-08-09T18:26:24Z</time>
      </trkpt>
      <trkpt lat="47.17109" lon="-1.65462">
        <ele>69.8</ele>
        <time>2015-08-09T18:26:31Z</time>
      </trkpt>
      <trkpt lat="47.17106" lon="-1.65489">
        <ele>63.5</ele>
        <time>2015-08-09T18:26:40Z</time>
      </trkpt>
      <trkpt lat="47.171" lon="-1.65515">
        <ele>57.8</ele>
        <time>2015-08-09T18:26:47Z</time>
      </trkpt>
      <trkpt lat="47.1709" lon="-1.6554">
        <ele>52.5</ele>
        <time>2015-08-09T18:26:54Z</time>
      </trkpt>
      <trkpt lat="47.17077" lon="-1.65562">
        <ele>49</ele>
        <time>2015-08-09T18:27:00Z</time>
      </trkpt>
      <trkpt lat="47.17066" lon="-1.65586">
        <ele>45.7</ele>
        <time>2015-08-09T18:27:07Z</time>
      </trkpt>
      <trkpt lat="47.17055" lon="-1.65608">
        <ele>42.7</ele>
        <time>2015-08-09T18:27:13Z</time>
      </trkpt>
      <trkpt lat="47.1704" lon="-1.6563">
        <ele>40.2</ele>
        <time>2015-08-09T18:27:20Z</time>
      </trkpt>
      <trkpt lat="47.17027" lon="-1.65652">
        <ele>38.2</ele>
        <time>2015-08-09T18:27:26Z</time>
      </trkpt>
      <trkpt lat="47.17015" lon="-1.65672">
        <ele>35.7</ele>
        <time>2015-08-09T18:27:32Z</time>
      </trkpt>
      <trkpt lat="47.17003" lon="-1.65695">
        <ele>33.9</ele>
        <time>2015-08-09T18:27:38Z</time>
      </trkpt>
      <trkpt lat="47.16987" lon="-1.65715">
        <ele>32.5</ele>
        <time>2015-08-09T18:27:44Z</time>
      </trkpt>
      <trkpt lat="47.1697" lon="-1.65728">
        <ele>31</ele>
        <time>2015-08-09T18:27:50Z</time>
      </trkpt>
      <trkpt lat="47.16965" lon="-1.65756">
        <ele>31</ele>
        <time>2015-08-09T18:27:57Z</time>
      </trkpt>
      <trkpt lat="47.16955" lon="-1.65779">
        <ele>30.6</ele>
        <time>2015-08-09T18:28:03Z</time>
      </trkpt>
      <trkpt lat="47.16944" lon="-1.65801">
        <ele>29.9</ele>
        <time>2015-08-09T18:28:10Z</time>
      </trkpt>
      <trkpt lat="47.16934" lon="-1.65824">
        <ele>29.1</ele>
        <time>2015-08-09T18:28:17Z</time>
      </trkpt>
      <trkpt lat="47.16923" lon="-1.65849">
        <ele>28.4</ele>
        <time>2015-08-09T18:28:24Z</time>
      </trkpt>
      <trkpt lat="47.16912" lon="-1.65873">
        <ele>28</ele>
        <time>2015-08-09T18:28:31Z</time>
      </trkpt>
      <trkpt lat="47.169" lon="-1.65894">
        <ele>27.8</ele>
        <time>2015-08-09T18:28:37Z</time>
      </trkpt>
      <trkpt lat="47.16889" lon="-1.65919">
        <ele>27.6</ele>
        <time>2015-08-09T18:28:44Z</time>
      </trkpt>
      <trkpt lat="47.16876" lon="-1.65938">
        <ele>27.3</ele>
        <time>2015-08-09T18:28:50Z</time>
      </trkpt>
      <trkpt lat="47.16877" lon="-1.65909">
        <ele>27.7</ele>
        <time>2015-08-09T18:28:58Z</time>
      </trkpt>
      <trkpt lat="47.16885" lon="-1.65883">
        <ele>27.5</ele>
        <time>2015-08-09T18:29:05Z</time>
      </trkpt>
      <trkpt lat="47.1689" lon="-1.65858">
        <ele>27.4</ele>
        <time>2015-08-09T18:29:12Z</time>
      </trkpt>
      <trkpt lat="47.16886" lon="-1.6583">
        <ele>27</ele>
        <time>2015-08-09T18:29:19Z</time>
      </trkpt>
      <trkpt lat="47.16884" lon="-1.658">
        <ele>26.7</ele>
        <time>2015-08-09T18:29:27Z</time>
      </trkpt>
      <trkpt lat="47.16887" lon="-1.65773">
        <ele>26.7</ele>
        <time>2015-08-09T18:29:37Z</time>
      </trkpt>
      <trkpt lat="47.16888" lon="-1.65746">
        <ele>27.1</ele>
        <time>2015-08-09T18:29:45Z</time>
      </trkpt>
      <trkpt lat="47.16887" lon="-1.6572">
        <ele>27.2</ele>
        <time>2015-08-09T18:29:52Z</time>
      </trkpt>
      <trkpt lat="47.16884" lon="-1.65691">
        <ele>27.3</ele>
        <time>2015-08-09T18:29:59Z</time>
      </trkpt>
      <trkpt lat="47.16877" lon="-1.65665">
        <ele>27.2</ele>
        <time>2015-08-09T18:30:05Z</time>
      </trkpt>
      <trkpt lat="47.16874" lon="-1.65638">
        <ele>27.2</ele>
        <time>2015-08-09T18:30:12Z</time>
      </trkpt>
      <trkpt lat="47.16872" lon="-1.65609">
        <ele>27.4</ele>
        <time>2015-08-09T18:30:21Z</time>
      </trkpt>
      <trkpt lat="47.1687" lon="-1.65581">
        <ele>27.5</ele>
        <time>2015-08-09T18:30:28Z</time>
      </trkpt>
      <trkpt lat="47.16868" lon="-1.65554">
        <ele>27.6</ele>
        <time>2015-08-09T18:30:37Z</time>
      </trkpt>
      <trkpt lat="47.1687" lon="-1.65525">
        <ele>28</ele>
        <time>2015-08-09T18:30:47Z</time>
      </trkpt>
      <trkpt lat="47.16865" lon="-1.65496">
        <ele>28.5</ele>
        <time>2015-08-09T18:30:54Z</time>
      </trkpt>
      <trkpt lat="47.1686" lon="-1.6547">
        <ele>28.8</ele>
        <time>2015-08-09T18:31:00Z</time>
      </trkpt>
      <trkpt lat="47.16854" lon="-1.65442">
        <ele>29</ele>
        <time>2015-08-09T18:31:05Z</time>
      </trkpt>
      <trkpt lat="47.16849" lon="-1.65414">
        <ele>29.3</ele>
        <time>2015-08-09T18:31:12Z</time>
      </trkpt>
      <trkpt lat="47.16844" lon="-1.65386">
        <ele>29.9</ele>
        <time>2015-08-09T18:31:20Z</time>
      </trkpt>
      <trkpt lat="47.16838" lon="-1.6536">
        <ele>30.2</ele>
        <time>2015-08-09T18:31:25Z</time>
      </trkpt>
      <trkpt lat="47.16833" lon="-1.65333">
        <ele>30.8</ele>
        <time>2015-08-09T18:31:31Z</time>
      </trkpt>
      <trkpt lat="47.16836" lon="-1.65305">
        <ele>31.3</ele>
        <time>2015-08-09T18:31:37Z</time>
      </trkpt>
      <trkpt lat="47.16836" lon="-1.65276">
        <ele>31.8</ele>
        <time>2015-08-09T18:31:43Z</time>
      </trkpt>
      <trkpt lat="47.16829" lon="-1.65247">
        <ele>32</ele>
        <time>2015-08-09T18:31:48Z</time>
      </trkpt>
      <trkpt lat="47.16828" lon="-1.65219">
        <ele>32.4</ele>
        <time>2015-08-09T18:31:56Z</time>
      </trkpt>
      <trkpt lat="47.16823" lon="-1.65193">
        <ele>32.6</ele>
        <time>2015-08-09T18:32:00Z</time>
      </trkpt>
      <trkpt lat="47.1682" lon="-1.65164">
        <ele>33.1</ele>
        <time>2015-08-09T18:32:07Z</time>
      </trkpt>
      <trkpt lat="47.16819" lon="-1.65136">
        <ele>33.6</ele>
        <time>2015-08-09T18:32:15Z</time>
      </trkpt>
      <trkpt lat="47.16817" lon="-1.65109">
        <ele>34.5</ele>
        <time>2015-08-09T18:32:21Z</time>
      </trkpt>
      <trkpt lat="47.16811" lon="-1.65083">
        <ele>35.3</ele>
        <time>2015-08-09T18:32:27Z</time>
      </trkpt>
      <trkpt lat="47.16806" lon="-1.65056">
        <ele>36</ele>
        <time>2015-08-09T18:32:36Z</time>
      </trkpt>
      <trkpt lat="47.16802" lon="-1.65026">
        <ele>35.9</ele>
        <time>2015-08-09T18:32:42Z</time>
      </trkpt>
      <trkpt lat="47.16797" lon="-1.64996">
        <ele>36</ele>
        <time>2015-08-09T18:32:50Z</time>
      </trkpt>
      <trkpt lat="47.16795" lon="-1.64969">
        <ele>36</ele>
        <time>2015-08-09T18:32:55Z</time>
      </trkpt>
      <trkpt lat="47.16799" lon="-1.64941">
        <ele>36.2</ele>
        <time>2015-08-09T18:33:01Z</time>
      </trkpt>
      <trkpt lat="47.16803" lon="-1.64914">
        <ele>36.5</ele>
        <time>2015-08-09T18:33:08Z</time>
      </trkpt>
      <trkpt lat="47.16807" lon="-1.64884">
        <ele>36.7</ele>
        <time>2015-08-09T18:33:16Z</time>
      </trkpt>
      <trkpt lat="47.1681" lon="-1.64851">
        <ele>36.6</ele>
        <time>2015-08-09T18:33:24Z</time>
      </trkpt>
      <trkpt lat="47.16811" lon="-1.64824">
        <ele>36.7</ele>
        <time>2015-08-09T18:33:31Z</time>
      </trkpt>
      <trkpt lat="47.16808" lon="-1.64798">
        <ele>37</ele>
        <time>2015-08-09T18:33:38Z</time>
      </trkpt>
      <trkpt lat="47.16799" lon="-1.6477">
        <ele>37.7</ele>
        <time>2015-08-09T18:33:45Z</time>
      </trkpt>
      <trkpt lat="47.16792" lon="-1.64745">
        <ele>38.2</ele>
        <time>2015-08-09T18:33:55Z</time>
      </trkpt>
      <trkpt lat="47.16785" lon="-1.64719">
        <ele>38.7</ele>
        <time>2015-08-09T18:34:00Z</time>
      </trkpt>
      <trkpt lat="47.16779" lon="-1.64693">
        <ele>40</ele>
        <time>2015-08-09T18:34:07Z</time>
      </trkpt>
      <trkpt lat="47.16772" lon="-1.64667">
        <ele>41.3</ele>
        <time>2015-08-09T18:34:16Z</time>
      </trkpt>
      <trkpt lat="47.16771" lon="-1.64636">
        <ele>42.1</ele>
        <time>2015-08-09T18:34:25Z</time>
      </trkpt>
      <trkpt lat="47.16767" lon="-1.64606">
        <ele>42.5</ele>
        <time>2015-08-09T18:34:31Z</time>
      </trkpt>
      <trkpt lat="47.16759" lon="-1.64578">
        <ele>42.7</ele>
        <time>2015-08-09T18:34:36Z</time>
      </trkpt>
      <trkpt lat="47.1675" lon="-1.6455">
        <ele>43.1</ele>
        <time>2015-08-09T18:34:43Z</time>
      </trkpt>
      <trkpt lat="47.1674" lon="-1.64524">
        <ele>43.6</ele>
        <time>2015-08-09T18:34:51Z</time>
      </trkpt>
      <trkpt lat="47.16731" lon="-1.64499">
        <ele>44.7</ele>
        <time>2015-08-09T18:34:59Z</time>
      </trkpt>
      <trkpt lat="47.16723" lon="-1.6447">
        <ele>45.6</ele>
        <time>2015-08-09T18:35:10Z</time>
      </trkpt>
      <trkpt lat="47.16714" lon="-1.64444">
        <ele>46</ele>
        <time>2015-08-09T18:35:16Z</time>
      </trkpt>
      <trkpt lat="47.16706" lon="-1.64415">
        <ele>45.8</ele>
        <time>2015-08-09T18:35:20Z</time>
      </trkpt>
      <trkpt lat="47.16699" lon="-1.64387">
        <ele>46.6</ele>
        <time>2015-08-09T18:35:31Z</time>
      </trkpt>
      <trkpt lat="47.16692" lon="-1.64359">
        <ele>47.1</ele>
        <time>2015-08-09T18:35:38Z</time>
      </trkpt>
      <trkpt lat="47.16682" lon="-1.64332">
        <ele>47.2</ele>
        <time>2015-08-09T18:35:42Z</time>
      </trkpt>
      <trkpt lat="47.16673" lon="-1.64308">
        <ele>47.1</ele>
        <time>2015-08-09T18:35:46Z</time>
      </trkpt>
      <trkpt lat="47.16663" lon="-1.64283">
        <ele>47.3</ele>
        <time>2015-08-09T18:35:50Z</time>
      </trkpt>
      <trkpt lat="47.16653" lon="-1.64257">
        <ele>47</ele>
        <time>2015-08-09T18:35:58Z</time>
      </trkpt>
      <trkpt lat="47.16643" lon="-1.64233">
        <ele>46.6</ele>
        <time>2015-08-09T18:36:05Z</time>
      </trkpt>
      <trkpt lat="47.16634" lon="-1.64211">
        <ele>46.9</ele>
        <time>2015-08-09T18:36:15Z</time>
      </trkpt>
      <trkpt lat="47.16614" lon="-1.64193">
        <ele>47.4</ele>
        <time>2015-08-09T18:36:20Z</time>
      </trkpt>
      <trkpt lat="47.16596" lon="-1.64188">
        <ele>47.6</ele>
        <time>2015-08-09T18:36:25Z</time>
      </trkpt>
      <trkpt lat="47.16578" lon="-1.64202">
        <ele>47.6</ele>
        <time>2015-08-09T18:36:32Z</time>
      </trkpt>
      <trkpt lat="47.16563" lon="-1.6422">
        <ele>47.9</ele>
        <time>2015-08-09T18:36:39Z</time>
      </trkpt>
      <trkpt lat="47.16547" lon="-1.64237">
        <ele>48.1</ele>
        <time>2015-08-09T18:36:46Z</time>
      </trkpt>
      <trkpt lat="47.16533" lon="-1.64255">
        <ele>48.3</ele>
        <time>2015-08-09T18:36:53Z</time>
      </trkpt>
      <trkpt lat="47.1652" lon="-1.64275">
        <ele>48.4</ele>
        <time>2015-08-09T18:37:01Z</time>
      </trkpt>
      <trkpt lat="47.16506" lon="-1.64293">
        <ele>48.6</ele>
        <time>2015-08-09T18:37:08Z</time>
      </trkpt>
      <trkpt lat="47.16487" lon="-1.64282">
        <ele>49.1</ele>
        <time>2015-08-09T18:37:15Z</time>
      </trkpt>
      <trkpt lat="47.16474" lon="-1.64263">
        <ele>50</ele>
        <time>2015-08-09T18:37:22Z</time>
      </trkpt>
      <trkpt lat="47.16471" lon="-1.64237">
        <ele>51</ele>
        <time>2015-08-09T18:37:30Z</time>
      </trkpt>
      <trkpt lat="47.16481" lon="-1.64214">
        <ele>51.4</ele>
        <time>2015-08-09T18:37:36Z</time>
      </trkpt>
      <trkpt lat="47.16491" lon="-1.64191">
        <ele>52</ele>
        <time>2015-08-09T18:37:44Z</time>
      </trkpt>
      <trkpt lat="47.165" lon="-1.64165">
        <ele>52.5</ele>
        <time>2015-08-09T18:37:51Z</time>
      </trkpt>
      <trkpt lat="47.16513" lon="-1.64144">
        <ele>52.8</ele>
        <time>2015-08-09T18:37:59Z</time>
      </trkpt>
      <trkpt lat="47.16527" lon="-1.64122">
        <ele>53.4</ele>
        <time>2015-08-09T18:38:07Z</time>
      </trkpt>
      <trkpt lat="47.16538" lon="-1.64099">
        <ele>53.9</ele>
        <time>2015-08-09T18:38:14Z</time>
      </trkpt>
      <trkpt lat="47.16549" lon="-1.64077">
        <ele>54.3</ele>
        <time>2015-08-09T18:38:20Z</time>
      </trkpt>
      <trkpt lat="47.16565" lon="-1.64058">
        <ele>54.3</ele>
        <time>2015-08-09T18:38:27Z</time>
      </trkpt>
      <trkpt lat="47.16565" lon="-1.64028">
        <ele>54.6</ele>
        <time>2015-08-09T18:38:35Z</time>
      </trkpt>
      <trkpt lat="47.16558" lon="-1.64003">
        <ele>55.1</ele>
        <time>2015-08-09T18:38:42Z</time>
      </trkpt>
      <trkpt lat="47.16546" lon="-1.63983">
        <ele>55.5</ele>
        <time>2015-08-09T18:38:48Z</time>
      </trkpt>
      <trkpt lat="47.16539" lon="-1.63958">
        <ele>56.1</ele>
        <time>2015-08-09T18:38:55Z</time>
      </trkpt>
      <trkpt lat="47.1653" lon="-1.63935">
        <ele>56.6</ele>
        <time>2015-08-09T18:39:01Z</time>
      </trkpt>
      <trkpt lat="47.16521" lon="-1.63912">
        <ele>57.9</ele>
        <time>2015-08-09T18:39:09Z</time>
      </trkpt>
      <trkpt lat="47.16514" lon="-1.63887">
        <ele>59</ele>
        <time>2015-08-09T18:39:15Z</time>
      </trkpt>
      <trkpt lat="47.16503" lon="-1.63866">
        <ele>60.1</ele>
        <time>2015-08-09T18:39:23Z</time>
      </trkpt>
      <trkpt lat="47.16494" lon="-1.63843">
        <ele>60.9</ele>
        <time>2015-08-09T18:39:30Z</time>
      </trkpt>
      <trkpt lat="47.16488" lon="-1.63814">
        <ele>61.5</ele>
        <time>2015-08-09T18:39:38Z</time>
      </trkpt>
      <trkpt lat="47.16478" lon="-1.63786">
        <ele>62.4</ele>
        <time>2015-08-09T18:39:44Z</time>
      </trkpt>
      <trkpt lat="47.16475" lon="-1.63759">
        <ele>63.1</ele>
        <time>2015-08-09T18:39:51Z</time>
      </trkpt>
      <trkpt lat="47.16471" lon="-1.63729">
        <ele>64.1</ele>
        <time>2015-08-09T18:39:59Z</time>
      </trkpt>
      <trkpt lat="47.16464" lon="-1.63704">
        <ele>64.9</ele>
        <time>2015-08-09T18:40:06Z</time>
      </trkpt>
      <trkpt lat="47.16455" lon="-1.6368">
        <ele>65.8</ele>
        <time>2015-08-09T18:40:12Z</time>
      </trkpt>
      <trkpt lat="47.16442" lon="-1.63658">
        <ele>66.2</ele>
        <time>2015-08-09T18:40:19Z</time>
      </trkpt>
      <trkpt lat="47.16434" lon="-1.63634">
        <ele>66.8</ele>
        <time>2015-08-09T18:40:26Z</time>
      </trkpt>
      <trkpt lat="47.16426" lon="-1.63609">
        <ele>67</ele>
        <time>2015-08-09T18:40:32Z</time>
      </trkpt>
      <trkpt lat="47.16418" lon="-1.63584">
        <ele>67.6</ele>
        <time>2015-08-09T18:40:38Z</time>
      </trkpt>
      <trkpt lat="47.164" lon="-1.63573">
        <ele>66.2</ele>
        <time>2015-08-09T18:40:43Z</time>
      </trkpt>
      <trkpt lat="47.16379" lon="-1.63574">
        <ele>64.4</ele>
        <time>2015-08-09T18:40:49Z</time>
      </trkpt>
      <trkpt lat="47.1636" lon="-1.63578">
        <ele>64.5</ele>
        <time>2015-08-09T18:40:57Z</time>
      </trkpt>
      <trkpt lat="47.1634" lon="-1.63572">
        <ele>65.2</ele>
        <time>2015-08-09T18:41:06Z</time>
      </trkpt>
      <trkpt lat="47.16327" lon="-1.63549">
        <ele>65</ele>
        <time>2015-08-09T18:41:12Z</time>
      </trkpt>
      <trkpt lat="47.16312" lon="-1.6353">
        <ele>65.2</ele>
        <time>2015-08-09T18:41:20Z</time>
      </trkpt>
      <trkpt lat="47.16298" lon="-1.63512">
        <ele>64.8</ele>
        <time>2015-08-09T18:41:26Z</time>
      </trkpt>
      <trkpt lat="47.16283" lon="-1.63492">
        <ele>64.8</ele>
        <time>2015-08-09T18:41:34Z</time>
      </trkpt>
      <trkpt lat="47.16272" lon="-1.63471">
        <ele>64.4</ele>
        <time>2015-08-09T18:41:41Z</time>
      </trkpt>
      <trkpt lat="47.16261" lon="-1.63447">
        <ele>64.9</ele>
        <time>2015-08-09T18:41:50Z</time>
      </trkpt>
      <trkpt lat="47.16251" lon="-1.63424">
        <ele>65.5</ele>
        <time>2015-08-09T18:41:59Z</time>
      </trkpt>
      <trkpt lat="47.16242" lon="-1.63399">
        <ele>66.5</ele>
        <time>2015-08-09T18:42:07Z</time>
      </trkpt>
      <trkpt lat="47.16233" lon="-1.6337">
        <ele>67.5</ele>
        <time>2015-08-09T18:42:14Z</time>
      </trkpt>
      <trkpt lat="47.16227" lon="-1.63339">
        <ele>67.6</ele>
        <time>2015-08-09T18:42:20Z</time>
      </trkpt>
      <trkpt lat="47.1622" lon="-1.6331">
        <ele>68</ele>
        <time>2015-08-09T18:42:25Z</time>
      </trkpt>
      <trkpt lat="47.16214" lon="-1.63284">
        <ele>68.8</ele>
        <time>2015-08-09T18:42:30Z</time>
      </trkpt>
      <trkpt lat="47.16209" lon="-1.63257">
        <ele>68.7</ele>
        <time>2015-08-09T18:42:35Z</time>
      </trkpt>
      <trkpt lat="47.16204" lon="-1.6323">
        <ele>68.7</ele>
        <time>2015-08-09T18:42:41Z</time>
      </trkpt>
      <trkpt lat="47.162" lon="-1.632">
        <ele>69</ele>
        <time>2015-08-09T18:42:50Z</time>
      </trkpt>
      <trkpt lat="47.1619" lon="-1.63177">
        <ele>68.5</ele>
        <time>2015-08-09T18:42:57Z</time>
      </trkpt>
      <trkpt lat="47.16179" lon="-1.63153">
        <ele>68.5</ele>
        <time>2015-08-09T18:43:04Z</time>
      </trkpt>
      <trkpt lat="47.16171" lon="-1.63129">
        <ele>68.4</ele>
        <time>2015-08-09T18:43:10Z</time>
      </trkpt>
      <trkpt lat="47.16163" lon="-1.63104">
        <ele>68.3</ele>
        <time>2015-08-09T18:43:16Z</time>
      </trkpt>
      <trkpt lat="47.16163" lon="-1.63075">
        <ele>68.8</ele>
        <time>2015-08-09T18:43:22Z</time>
      </trkpt>
      <trkpt lat="47.1617" lon="-1.63049">
        <ele>69.7</ele>
        <time>2015-08-09T18:43:29Z</time>
      </trkpt>
      <trkpt lat="47.16182" lon="-1.63027">
        <ele>70.4</ele>
        <time>2015-08-09T18:43:36Z</time>
      </trkpt>
      <trkpt lat="47.16182" lon="-1.62999">
        <ele>69.7</ele>
        <time>2015-08-09T18:43:46Z</time>
      </trkpt>
      <trkpt lat="47.16191" lon="-1.62973">
        <ele>70.1</ele>
        <time>2015-08-09T18:43:53Z</time>
      </trkpt>
      <trkpt lat="47.16204" lon="-1.62951">
        <ele>70.2</ele>
        <time>2015-08-09T18:43:58Z</time>
      </trkpt>
      <trkpt lat="47.16218" lon="-1.62934">
        <ele>68.8</ele>
        <time>2015-08-09T18:44:03Z</time>
      </trkpt>
      <trkpt lat="47.16234" lon="-1.62916">
        <ele>68.7</ele>
        <time>2015-08-09T18:44:10Z</time>
      </trkpt>
      <trkpt lat="47.16249" lon="-1.62898">
        <ele>69</ele>
        <time>2015-08-09T18:44:16Z</time>
      </trkpt>
      <trkpt lat="47.16264" lon="-1.62875">
        <ele>69.8</ele>
        <time>2015-08-09T18:44:23Z</time>
      </trkpt>
      <trkpt lat="47.16276" lon="-1.62854">
        <ele>70.9</ele>
        <time>2015-08-09T18:44:31Z</time>
      </trkpt>
      <trkpt lat="47.16291" lon="-1.62834">
        <ele>72.1</ele>
        <time>2015-08-09T18:44:40Z</time>
      </trkpt>
      <trkpt lat="47.1631" lon="-1.62821">
        <ele>72.5</ele>
        <time>2015-08-09T18:44:47Z</time>
      </trkpt>
      <trkpt lat="47.16323" lon="-1.62802">
        <ele>72.9</ele>
        <time>2015-08-09T18:44:53Z</time>
      </trkpt>
      <trkpt lat="47.16327" lon="-1.62775">
        <ele>73.4</ele>
        <time>2015-08-09T18:45:00Z</time>
      </trkpt>
      <trkpt lat="47.16324" lon="-1.62747">
        <ele>74.1</ele>
        <time>2015-08-09T18:45:08Z</time>
      </trkpt>
      <trkpt lat="47.16307" lon="-1.62735">
        <ele>74.1</ele>
        <time>2015-08-09T18:45:14Z</time>
      </trkpt>
      <trkpt lat="47.16303" lon="-1.62707">
        <ele>74.5</ele>
        <time>2015-08-09T18:45:20Z</time>
      </trkpt>
      <trkpt lat="47.163" lon="-1.62679">
        <ele>74.6</ele>
        <time>2015-08-09T18:45:26Z</time>
      </trkpt>
      <trkpt lat="47.16299" lon="-1.62652">
        <ele>74.7</ele>
        <time>2015-08-09T18:45:32Z</time>
      </trkpt>
      <trkpt lat="47.16301" lon="-1.62624">
        <ele>74.7</ele>
        <time>2015-08-09T18:45:39Z</time>
      </trkpt>
      <trkpt lat="47.16306" lon="-1.62597">
        <ele>74.8</ele>
        <time>2015-08-09T18:45:46Z</time>
      </trkpt>
      <trkpt lat="47.16315" lon="-1.62573">
        <ele>73.9</ele>
        <time>2015-08-09T18:45:54Z</time>
      </trkpt>
      <trkpt lat="47.16336" lon="-1.62576">
        <ele>73.6</ele>
        <time>2015-08-09T18:46:05Z</time>
      </trkpt>
      <trkpt lat="47.16353" lon="-1.62583">
        <ele>74</ele>
        <time>2015-08-09T18:46:12Z</time>
      </trkpt>
      <trkpt lat="47.16372" lon="-1.62585">
        <ele>74.1</ele>
        <time>2015-08-09T18:46:18Z</time>
      </trkpt>
      <trkpt lat="47.16389" lon="-1.62574">
        <ele>73.9</ele>
        <time>2015-08-09T18:46:24Z</time>
      </trkpt>
      <trkpt lat="47.16406" lon="-1.62561">
        <ele>70.1</ele>
        <time>2015-08-09T18:46:31Z</time>
      </trkpt>
      <trkpt lat="47.16423" lon="-1.62546">
        <ele>67.2</ele>
        <time>2015-08-09T18:46:38Z</time>
      </trkpt>
      <trkpt lat="47.16441" lon="-1.6254">
        <ele>64.6</ele>
        <time>2015-08-09T18:46:45Z</time>
      </trkpt>
      <trkpt lat="47.16459" lon="-1.62549">
        <ele>60.1</ele>
        <time>2015-08-09T18:46:52Z</time>
      </trkpt>
      <trkpt lat="47.16478" lon="-1.62553">
        <ele>56.1</ele>
        <time>2015-08-09T18:46:59Z</time>
      </trkpt>
      <trkpt lat="47.16496" lon="-1.6256">
        <ele>51.6</ele>
        <time>2015-08-09T18:47:06Z</time>
      </trkpt>
      <trkpt lat="47.16514" lon="-1.62567">
        <ele>47.7</ele>
        <time>2015-08-09T18:47:13Z</time>
      </trkpt>
      <trkpt lat="47.16532" lon="-1.62563">
        <ele>45.5</ele>
        <time>2015-08-09T18:47:20Z</time>
      </trkpt>
      <trkpt lat="47.16547" lon="-1.62546">
        <ele>43.3</ele>
        <time>2015-08-09T18:47:26Z</time>
      </trkpt>
      <trkpt lat="47.1656" lon="-1.62529">
        <ele>40.7</ele>
        <time>2015-08-09T18:47:32Z</time>
      </trkpt>
      <trkpt lat="47.16571" lon="-1.62505">
        <ele>38.5</ele>
        <time>2015-08-09T18:47:38Z</time>
      </trkpt>
      <trkpt lat="47.16582" lon="-1.62484">
        <ele>36.4</ele>
        <time>2015-08-09T18:47:45Z</time>
      </trkpt>
      <trkpt lat="47.16594" lon="-1.62459">
        <ele>34.3</ele>
        <time>2015-08-09T18:47:54Z</time>
      </trkpt>
      <trkpt lat="47.16603" lon="-1.62433">
        <ele>32</ele>
        <time>2015-08-09T18:48:02Z</time>
      </trkpt>
      <trkpt lat="47.16614" lon="-1.6241">
        <ele>29.5</ele>
        <time>2015-08-09T18:48:10Z</time>
      </trkpt>
      <trkpt lat="47.16624" lon="-1.62388">
        <ele>27</ele>
        <time>2015-08-09T18:48:17Z</time>
      </trkpt>
      <trkpt lat="47.16638" lon="-1.62368">
        <ele>24.8</ele>
        <time>2015-08-09T18:48:25Z</time>
      </trkpt>
      <trkpt lat="47.16658" lon="-1.62359">
        <ele>22.5</ele>
        <time>2015-08-09T18:48:33Z</time>
      </trkpt>
      <trkpt lat="47.16677" lon="-1.62359">
        <ele>21.7</ele>
        <time>2015-08-09T18:48:39Z</time>
      </trkpt>
      <trkpt lat="47.16693" lon="-1.62373">
        <ele>20.9</ele>
        <time>2015-08-09T18:48:44Z</time>
      </trkpt>
      <trkpt lat="47.16708" lon="-1.62391">
        <ele>19.7</ele>
        <time>2015-08-09T18:48:50Z</time>
      </trkpt>
      <trkpt lat="47.16707" lon="-1.62418">
        <ele>18.9</ele>
        <time>2015-08-09T18:48:57Z</time>
      </trkpt>
      <trkpt lat="47.16709" lon="-1.62446">
        <ele>17.3</ele>
        <time>2015-08-09T18:49:05Z</time>
      </trkpt>
      <trkpt lat="47.16726" lon="-1.6246">
        <ele>15.9</ele>
        <time>2015-08-09T18:49:13Z</time>
      </trkpt>
      <trkpt lat="47.16728" lon="-1.62489">
        <ele>14.9</ele>
        <time>2015-08-09T18:49:19Z</time>
      </trkpt>
      <trkpt lat="47.16724" lon="-1.62515">
        <ele>14.1</ele>
        <time>2015-08-09T18:49:25Z</time>
      </trkpt>
      <trkpt lat="47.1672" lon="-1.62543">
        <ele>13</ele>
        <time>2015-08-09T18:49:32Z</time>
      </trkpt>
      <trkpt lat="47.16716" lon="-1.62571">
        <ele>11.9</ele>
        <time>2015-08-09T18:49:39Z</time>
      </trkpt>
      <trkpt lat="47.16714" lon="-1.62601">
        <ele>10.9</ele>
        <time>2015-08-09T18:49:46Z</time>
      </trkpt>
      <trkpt lat="47.16712" lon="-1.62628">
        <ele>10.2</ele>
        <time>2015-08-09T18:49:52Z</time>
      </trkpt>
      <trkpt lat="47.16714" lon="-1.62654">
        <ele>9.3</ele>
        <time>2015-08-09T18:49:58Z</time>
      </trkpt>
      <trkpt lat="47.16719" lon="-1.62683">
        <ele>8.8</ele>
        <time>2015-08-09T18:50:05Z</time>
      </trkpt>
      <trkpt lat="47.16739" lon="-1.62676">
        <ele>8.2</ele>
        <time>2015-08-09T18:50:12Z</time>
      </trkpt>
      <trkpt lat="47.16758" lon="-1.62676">
        <ele>8.5</ele>
        <time>2015-08-09T18:50:18Z</time>
      </trkpt>
      <trkpt lat="47.16776" lon="-1.62672">
        <ele>8.5</ele>
        <time>2015-08-09T18:50:26Z</time>
      </trkpt>
    </trkseg>
  </trk>
</gpx>